sensor_id;sensor_type;location;lat;lon;timestamp;P1;durP1;ratioP1;P2;durP2;ratioP2
67195;SDS011;54122;53.538;49.366;2023-07-29T00:01:46;11.23;;;4.75;;
67195;SDS011;54122;53.538;49.366;2023-07-29T00:04:12;12.88;;;3.50;;
67195;SDS011;54122;53.538;49.366;2023-07-29T00:06:38;14.00;;;4.43;;
67195;SDS011;54122;53.538;49.366;2023-07-29T00:09:04;13.35;;;5.07;;
67195;SDS011;54122;53.538;49.366;2023-07-29T00:11:30;25.13;;;4.55;;
67195;SDS011;54122;53.538;49.366;2023-07-29T00:13:59;12.13;;;4.85;;
67195;SDS011;54122;53.538;49.366;2023-07-29T00:16:26;12.00;;;3.80;;
67195;SDS011;54122;53.538;49.366;2023-07-29T00:18:53;16.30;;;4.53;;
67195;SDS011;54122;53.538;49.366;2023-07-29T00:21:19;9.93;;;3.97;;
67195;SDS011;54122;53.538;49.366;2023-07-29T00:23:45;8.65;;;4.30;;
67195;SDS011;54122;53.538;49.366;2023-07-29T00:26:11;10.43;;;4.47;;
67195;SDS011;54122;53.538;49.366;2023-07-29T00:28:38;12.93;;;3.90;;
67195;SDS011;54122;53.538;49.366;2023-07-29T00:31:04;17.98;;;4.97;;
67195;SDS011;54122;53.538;49.366;2023-07-29T00:33:30;12.30;;;4.88;;
67195;SDS011;54122;53.538;49.366;2023-07-29T00:35:56;14.98;;;3.60;;
67195;SDS011;54122;53.538;49.366;2023-07-29T00:38:22;10.45;;;3.97;;
67195;SDS011;54122;53.538;49.366;2023-07-29T00:40:48;12.77;;;4.20;;
67195;SDS011;54122;53.538;49.366;2023-07-29T00:43:15;12.55;;;3.72;;
67195;SDS011;54122;53.538;49.366;2023-07-29T00:45:41;10.93;;;4.55;;
67195;SDS011;54122;53.538;49.366;2023-07-29T00:48:10;10.23;;;4.05;;
67195;SDS011;54122;53.538;49.366;2023-07-29T00:50:36;25.33;;;5.22;;
67195;SDS011;54122;53.538;49.366;2023-07-29T00:53:02;10.65;;;4.10;;
67195;SDS011;54122;53.538;49.366;2023-07-29T00:55:29;13.00;;;4.35;;
67195;SDS011;54122;53.538;49.366;2023-07-29T00:57:55;15.07;;;4.88;;
67195;SDS011;54122;53.538;49.366;2023-07-29T01:00:22;18.70;;;4.57;;
67195;SDS011;54122;53.538;49.366;2023-07-29T01:02:48;9.32;;;4.25;;
67195;SDS011;54122;53.538;49.366;2023-07-29T01:05:15;10.70;;;4.38;;
67195;SDS011;54122;53.538;49.366;2023-07-29T01:13:31;8.75;;;3.42;;
67195;SDS011;54122;53.538;49.366;2023-07-29T01:16:30;22.70;;;4.18;;
67195;SDS011;54122;53.538;49.366;2023-07-29T01:19:00;8.82;;;3.17;;
67195;SDS011;54122;53.538;49.366;2023-07-29T01:21:33;12.65;;;3.95;;
67195;SDS011;54122;53.538;49.366;2023-07-29T01:24:01;11.35;;;3.50;;
67195;SDS011;54122;53.538;49.366;2023-07-29T01:26:27;12.52;;;4.00;;
67195;SDS011;54122;53.538;49.366;2023-07-29T01:28:55;15.77;;;4.13;;
67195;SDS011;54122;53.538;49.366;2023-07-29T01:31:36;8.90;;;3.72;;
67195;SDS011;54122;53.538;49.366;2023-07-29T01:34:22;19.00;;;3.78;;
67195;SDS011;54122;53.538;49.366;2023-07-29T01:36:52;12.45;;;3.90;;
67195;SDS011;54122;53.538;49.366;2023-07-29T01:39:23;11.32;;;3.65;;
67195;SDS011;54122;53.538;49.366;2023-07-29T01:41:51;12.02;;;3.88;;
67195;SDS011;54122;53.538;49.366;2023-07-29T01:44:18;9.15;;;3.67;;
67195;SDS011;54122;53.538;49.366;2023-07-29T01:46:45;15.32;;;4.85;;
67195;SDS011;54122;53.538;49.366;2023-07-29T01:49:11;16.77;;;4.63;;
67195;SDS011;54122;53.538;49.366;2023-07-29T01:51:37;14.27;;;4.03;;
67195;SDS011;54122;53.538;49.366;2023-07-29T01:54:04;15.18;;;4.40;;
67195;SDS011;54122;53.538;49.366;2023-07-29T01:56:30;12.40;;;4.32;;
67195;SDS011;54122;53.538;49.366;2023-07-29T01:58:56;12.45;;;3.92;;
67195;SDS011;54122;53.538;49.366;2023-07-29T02:01:22;9.38;;;4.10;;
67195;SDS011;54122;53.538;49.366;2023-07-29T02:03:48;8.77;;;4.13;;
67195;SDS011;54122;53.538;49.366;2023-07-29T02:06:20;10.18;;;3.90;;
67195;SDS011;54122;53.538;49.366;2023-07-29T02:08:46;9.57;;;4.75;;
67195;SDS011;54122;53.538;49.366;2023-07-29T02:11:13;15.55;;;4.05;;
67195;SDS011;54122;53.538;49.366;2023-07-29T02:13:40;11.45;;;4.13;;
67195;SDS011;54122;53.538;49.366;2023-07-29T02:16:06;11.48;;;4.43;;
67195;SDS011;54122;53.538;49.366;2023-07-29T02:18:32;9.73;;;4.32;;
67195;SDS011;54122;53.538;49.366;2023-07-29T02:20:58;13.32;;;4.25;;
67195;SDS011;54122;53.538;49.366;2023-07-29T02:23:24;12.65;;;4.13;;
67195;SDS011;54122;53.538;49.366;2023-07-29T02:25:51;10.10;;;4.40;;
67195;SDS011;54122;53.538;49.366;2023-07-29T02:28:17;12.20;;;4.50;;
67195;SDS011;54122;53.538;49.366;2023-07-29T02:30:44;15.15;;;4.57;;
67195;SDS011;54122;53.538;49.366;2023-07-29T02:33:10;15.20;;;4.97;;
67195;SDS011;54122;53.538;49.366;2023-07-29T02:35:36;10.45;;;4.55;;
67195;SDS011;54122;53.538;49.366;2023-07-29T02:38:02;10.25;;;5.15;;
67195;SDS011;54122;53.538;49.366;2023-07-29T02:40:29;11.20;;;4.57;;
67195;SDS011;54122;53.538;49.366;2023-07-29T02:42:55;14.45;;;5.10;;
67195;SDS011;54122;53.538;49.366;2023-07-29T02:45:21;16.00;;;5.57;;
67195;SDS011;54122;53.538;49.366;2023-07-29T02:47:47;19.67;;;5.55;;
67195;SDS011;54122;53.538;49.366;2023-07-29T02:50:13;17.27;;;5.10;;
67195;SDS011;54122;53.538;49.366;2023-07-29T02:52:39;19.05;;;5.82;;
67195;SDS011;54122;53.538;49.366;2023-07-29T02:55:06;15.23;;;5.63;;
67195;SDS011;54122;53.538;49.366;2023-07-29T02:57:32;15.23;;;5.30;;
67195;SDS011;54122;53.538;49.366;2023-07-29T02:59:58;10.70;;;5.10;;
67195;SDS011;54122;53.538;49.366;2023-07-29T03:02:24;15.15;;;4.80;;
67195;SDS011;54122;53.538;49.366;2023-07-29T03:04:51;19.15;;;4.75;;
67195;SDS011;54122;53.538;49.366;2023-07-29T03:07:17;11.88;;;5.05;;
67195;SDS011;54122;53.538;49.366;2023-07-29T03:09:43;11.38;;;4.82;;
67195;SDS011;54122;53.538;49.366;2023-07-29T03:12:10;20.50;;;4.78;;
67195;SDS011;54122;53.538;49.366;2023-07-29T03:14:36;15.25;;;4.68;;
67195;SDS011;54122;53.538;49.366;2023-07-29T03:17:03;12.25;;;4.63;;
67195;SDS011;54122;53.538;49.366;2023-07-29T03:19:32;14.85;;;4.93;;
67195;SDS011;54122;53.538;49.366;2023-07-29T03:21:58;13.00;;;5.28;;
67195;SDS011;54122;53.538;49.366;2023-07-29T03:24:24;11.20;;;4.43;;
67195;SDS011;54122;53.538;49.366;2023-07-29T03:26:50;14.73;;;4.88;;
67195;SDS011;54122;53.538;49.366;2023-07-29T03:29:17;12.57;;;4.63;;
67195;SDS011;54122;53.538;49.366;2023-07-29T03:31:43;16.73;;;4.75;;
67195;SDS011;54122;53.538;49.366;2023-07-29T03:34:09;11.23;;;5.05;;
67195;SDS011;54122;53.538;49.366;2023-07-29T03:36:36;13.68;;;4.88;;
67195;SDS011;54122;53.538;49.366;2023-07-29T03:39:02;12.70;;;5.60;;
67195;SDS011;54122;53.538;49.366;2023-07-29T03:41:29;10.38;;;4.53;;
67195;SDS011;54122;53.538;49.366;2023-07-29T03:43:55;17.17;;;4.65;;
67195;SDS011;54122;53.538;49.366;2023-07-29T03:46:21;10.27;;;3.70;;
67195;SDS011;54122;53.538;49.366;2023-07-29T03:48:47;10.98;;;4.15;;
67195;SDS011;54122;53.538;49.366;2023-07-29T03:51:13;14.80;;;4.68;;
67195;SDS011;54122;53.538;49.366;2023-07-29T03:53:40;10.77;;;4.40;;
67195;SDS011;54122;53.538;49.366;2023-07-29T03:56:06;13.57;;;4.53;;
67195;SDS011;54122;53.538;49.366;2023-07-29T03:58:33;15.65;;;4.68;;
67195;SDS011;54122;53.538;49.366;2023-07-29T04:00:59;10.10;;;4.10;;
67195;SDS011;54122;53.538;49.366;2023-07-29T04:03:25;16.88;;;4.15;;
67195;SDS011;54122;53.538;49.366;2023-07-29T04:05:52;8.73;;;4.30;;
67195;SDS011;54122;53.538;49.366;2023-07-29T04:08:18;11.43;;;4.25;;
67195;SDS011;54122;53.538;49.366;2023-07-29T04:10:47;14.90;;;4.18;;
67195;SDS011;54122;53.538;49.366;2023-07-29T04:13:13;9.52;;;4.25;;
67195;SDS011;54122;53.538;49.366;2023-07-29T04:15:40;11.38;;;4.05;;
67195;SDS011;54122;53.538;49.366;2023-07-29T04:18:06;8.75;;;4.00;;
67195;SDS011;54122;53.538;49.366;2023-07-29T04:20:32;14.55;;;3.83;;
67195;SDS011;54122;53.538;49.366;2023-07-29T04:22:59;13.13;;;4.53;;
67195;SDS011;54122;53.538;49.366;2023-07-29T04:25:25;14.23;;;4.10;;
67195;SDS011;54122;53.538;49.366;2023-07-29T04:27:51;11.52;;;3.83;;
67195;SDS011;54122;53.538;49.366;2023-07-29T04:30:17;12.82;;;4.55;;
67195;SDS011;54122;53.538;49.366;2023-07-29T04:32:43;7.35;;;3.70;;
67195;SDS011;54122;53.538;49.366;2023-07-29T04:35:10;9.50;;;4.53;;
67195;SDS011;54122;53.538;49.366;2023-07-29T04:37:36;14.02;;;5.00;;
67195;SDS011;54122;53.538;49.366;2023-07-29T04:40:02;9.77;;;4.43;;
67195;SDS011;54122;53.538;49.366;2023-07-29T04:42:29;12.88;;;4.35;;
67195;SDS011;54122;53.538;49.366;2023-07-29T04:44:55;10.02;;;3.70;;
67195;SDS011;54122;53.538;49.366;2023-07-29T04:47:21;13.35;;;4.05;;
67195;SDS011;54122;53.538;49.366;2023-07-29T04:49:47;12.13;;;3.97;;
67195;SDS011;54122;53.538;49.366;2023-07-29T04:52:14;7.55;;;3.83;;
67195;SDS011;54122;53.538;49.366;2023-07-29T04:54:40;8.80;;;4.07;;
67195;SDS011;54122;53.538;49.366;2023-07-29T04:57:06;15.40;;;4.03;;
67195;SDS011;54122;53.538;49.366;2023-07-29T04:59:33;19.48;;;4.53;;
67195;SDS011;54122;53.538;49.366;2023-07-29T05:01:59;9.80;;;3.90;;
67195;SDS011;54122;53.538;49.366;2023-07-29T05:04:25;6.90;;;3.88;;
67195;SDS011;54122;53.538;49.366;2023-07-29T05:06:51;5.63;;;3.63;;
67195;SDS011;54122;53.538;49.366;2023-07-29T05:09:18;6.18;;;3.95;;
67195;SDS011;54122;53.538;49.366;2023-07-29T05:11:48;8.95;;;4.00;;
67195;SDS011;54122;53.538;49.366;2023-07-29T05:14:15;9.43;;;3.88;;
67195;SDS011;54122;53.538;49.366;2023-07-29T05:16:42;7.57;;;3.60;;
67195;SDS011;54122;53.538;49.366;2023-07-29T05:19:09;6.85;;;3.42;;
67195;SDS011;54122;53.538;49.366;2023-07-29T05:21:36;7.38;;;4.15;;
67195;SDS011;54122;53.538;49.366;2023-07-29T05:24:03;5.30;;;3.15;;
67195;SDS011;54122;53.538;49.366;2023-07-29T05:26:29;11.43;;;3.50;;
67195;SDS011;54122;53.538;49.366;2023-07-29T05:28:55;8.43;;;3.03;;
67195;SDS011;54122;53.538;49.366;2023-07-29T05:31:22;7.95;;;3.50;;
67195;SDS011;54122;53.538;49.366;2023-07-29T05:33:48;10.05;;;3.78;;
67195;SDS011;54122;53.538;49.366;2023-07-29T05:36:14;11.35;;;3.38;;
67195;SDS011;54122;53.538;49.366;2023-07-29T05:38:41;10.55;;;3.78;;
67195;SDS011;54122;53.538;49.366;2023-07-29T05:41:07;6.30;;;3.15;;
67195;SDS011;54122;53.538;49.366;2023-07-29T05:43:33;13.70;;;3.78;;
67195;SDS011;54122;53.538;49.366;2023-07-29T05:46:00;6.85;;;3.65;;
67195;SDS011;54122;53.538;49.366;2023-07-29T05:48:26;9.85;;;3.75;;
67195;SDS011;54122;53.538;49.366;2023-07-29T05:50:52;13.73;;;3.03;;
67195;SDS011;54122;53.538;49.366;2023-07-29T05:53:19;9.25;;;3.25;;
67195;SDS011;54122;53.538;49.366;2023-07-29T05:55:45;7.13;;;2.72;;
67195;SDS011;54122;53.538;49.366;2023-07-29T05:58:11;5.07;;;3.03;;
67195;SDS011;54122;53.538;49.366;2023-07-29T06:00:38;9.43;;;3.60;;
67195;SDS011;54122;53.538;49.366;2023-07-29T06:03:04;6.53;;;2.95;;
67195;SDS011;54122;53.538;49.366;2023-07-29T06:05:33;7.18;;;2.55;;
67195;SDS011;54122;53.538;49.366;2023-07-29T06:07:59;10.45;;;3.10;;
67195;SDS011;54122;53.538;49.366;2023-07-29T06:10:25;7.07;;;3.28;;
67195;SDS011;54122;53.538;49.366;2023-07-29T06:12:51;4.78;;;2.47;;
67195;SDS011;54122;53.538;49.366;2023-07-29T06:15:17;5.05;;;2.53;;
67195;SDS011;54122;53.538;49.366;2023-07-29T06:17:47;8.15;;;2.83;;
67195;SDS011;54122;53.538;49.366;2023-07-29T06:20:13;5.80;;;2.80;;
67195;SDS011;54122;53.538;49.366;2023-07-29T06:22:40;6.68;;;3.20;;
67195;SDS011;54122;53.538;49.366;2023-07-29T06:25:08;5.85;;;3.03;;
67195;SDS011;54122;53.538;49.366;2023-07-29T06:27:34;7.30;;;3.47;;
67195;SDS011;54122;53.538;49.366;2023-07-29T06:30:00;7.18;;;3.72;;
67195;SDS011;54122;53.538;49.366;2023-07-29T06:32:27;9.77;;;4.20;;
67195;SDS011;54122;53.538;49.366;2023-07-29T06:34:53;4.70;;;3.08;;
67195;SDS011;54122;53.538;49.366;2023-07-29T06:37:20;5.88;;;2.78;;
67195;SDS011;54122;53.538;49.366;2023-07-29T06:39:46;7.95;;;3.05;;
67195;SDS011;54122;53.538;49.366;2023-07-29T06:42:12;5.40;;;3.17;;
67195;SDS011;54122;53.538;49.366;2023-07-29T06:44:39;4.65;;;3.40;;
67195;SDS011;54122;53.538;49.366;2023-07-29T06:47:05;5.03;;;3.15;;
67195;SDS011;54122;53.538;49.366;2023-07-29T06:49:32;11.10;;;3.47;;
67195;SDS011;54122;53.538;49.366;2023-07-29T06:51:58;6.22;;;2.95;;
67195;SDS011;54122;53.538;49.366;2023-07-29T06:54:24;6.00;;;3.20;;
67195;SDS011;54122;53.538;49.366;2023-07-29T06:56:52;5.32;;;2.80;;
67195;SDS011;54122;53.538;49.366;2023-07-29T06:59:18;6.80;;;2.88;;
67195;SDS011;54122;53.538;49.366;2023-07-29T07:01:44;6.68;;;3.15;;
67195;SDS011;54122;53.538;49.366;2023-07-29T07:04:10;15.23;;;3.22;;
67195;SDS011;54122;53.538;49.366;2023-07-29T07:06:36;7.40;;;3.13;;
67195;SDS011;54122;53.538;49.366;2023-07-29T07:09:02;5.22;;;2.70;;
67195;SDS011;54122;53.538;49.366;2023-07-29T07:11:29;11.98;;;2.88;;
67195;SDS011;54122;53.538;49.366;2023-07-29T07:13:55;8.18;;;2.80;;
67195;SDS011;54122;53.538;49.366;2023-07-29T07:16:21;9.32;;;3.25;;
67195;SDS011;54122;53.538;49.366;2023-07-29T07:18:47;5.75;;;3.20;;
67195;SDS011;54122;53.538;49.366;2023-07-29T07:21:13;4.50;;;2.67;;
67195;SDS011;54122;53.538;49.366;2023-07-29T07:23:39;7.32;;;2.72;;
67195;SDS011;54122;53.538;49.366;2023-07-29T07:26:06;4.32;;;2.60;;
67195;SDS011;54122;53.538;49.366;2023-07-29T07:28:32;6.35;;;2.40;;
67195;SDS011;54122;53.538;49.366;2023-07-29T07:30:58;5.22;;;2.60;;
67195;SDS011;54122;53.538;49.366;2023-07-29T07:33:24;10.68;;;3.00;;
67195;SDS011;54122;53.538;49.366;2023-07-29T07:35:50;15.57;;;3.22;;
67195;SDS011;54122;53.538;49.366;2023-07-29T07:38:17;7.18;;;2.92;;
67195;SDS011;54122;53.538;49.366;2023-07-29T07:40:51;8.07;;;2.65;;
67195;SDS011;54122;53.538;49.366;2023-07-29T07:43:22;5.07;;;2.65;;
67195;SDS011;54122;53.538;49.366;2023-07-29T07:45:49;6.63;;;3.15;;
67195;SDS011;54122;53.538;49.366;2023-07-29T07:48:16;5.72;;;2.40;;
67195;SDS011;54122;53.538;49.366;2023-07-29T07:50:43;8.82;;;2.47;;
67195;SDS011;54122;53.538;49.366;2023-07-29T07:53:09;8.10;;;3.17;;
67195;SDS011;54122;53.538;49.366;2023-07-29T07:55:35;9.10;;;3.72;;
67195;SDS011;54122;53.538;49.366;2023-07-29T07:58:01;7.15;;;2.53;;
67195;SDS011;54122;53.538;49.366;2023-07-29T08:00:27;4.20;;;2.75;;
67195;SDS011;54122;53.538;49.366;2023-07-29T08:02:53;6.32;;;2.72;;
67195;SDS011;54122;53.538;49.366;2023-07-29T08:05:20;5.38;;;2.78;;
67195;SDS011;54122;53.538;49.366;2023-07-29T08:07:46;5.55;;;2.90;;
67195;SDS011;54122;53.538;49.366;2023-07-29T08:10:12;4.82;;;2.78;;
67195;SDS011;54122;53.538;49.366;2023-07-29T08:12:38;3.58;;;2.33;;
67195;SDS011;54122;53.538;49.366;2023-07-29T08:15:05;9.23;;;3.55;;
67195;SDS011;54122;53.538;49.366;2023-07-29T08:17:31;6.22;;;4.38;;
67195;SDS011;54122;53.538;49.366;2023-07-29T08:19:57;12.90;;;3.75;;
67195;SDS011;54122;53.538;49.366;2023-07-29T08:22:25;8.75;;;5.60;;
67195;SDS011;54122;53.538;49.366;2023-07-29T08:24:51;7.13;;;3.13;;
67195;SDS011;54122;53.538;49.366;2023-07-29T08:27:18;6.78;;;3.03;;
67195;SDS011;54122;53.538;49.366;2023-07-29T08:29:44;6.57;;;3.20;;
67195;SDS011;54122;53.538;49.366;2023-07-29T08:32:10;7.20;;;3.00;;
67195;SDS011;54122;53.538;49.366;2023-07-29T08:34:36;10.30;;;3.55;;
67195;SDS011;54122;53.538;49.366;2023-07-29T08:37:02;9.82;;;2.95;;
67195;SDS011;54122;53.538;49.366;2023-07-29T08:39:29;6.60;;;2.83;;
67195;SDS011;54122;53.538;49.366;2023-07-29T08:42:02;4.97;;;2.67;;
67195;SDS011;54122;53.538;49.366;2023-07-29T08:44:39;6.75;;;2.88;;
67195;SDS011;54122;53.538;49.366;2023-07-29T08:47:09;8.23;;;3.20;;
67195;SDS011;54122;53.538;49.366;2023-07-29T08:49:36;12.38;;;2.97;;
67195;SDS011;54122;53.538;49.366;2023-07-29T08:52:04;8.85;;;2.90;;
67195;SDS011;54122;53.538;49.366;2023-07-29T08:54:31;11.73;;;3.53;;
67195;SDS011;54122;53.538;49.366;2023-07-29T08:56:57;4.32;;;3.10;;
67195;SDS011;54122;53.538;49.366;2023-07-29T08:59:24;7.10;;;3.22;;
67195;SDS011;54122;53.538;49.366;2023-07-29T09:01:52;8.32;;;3.22;;
67195;SDS011;54122;53.538;49.366;2023-07-29T09:06:50;10.55;;;3.25;;
67195;SDS011;54122;53.538;49.366;2023-07-29T09:09:17;9.35;;;3.08;;
67195;SDS011;54122;53.538;49.366;2023-07-29T09:11:43;12.95;;;3.50;;
67195;SDS011;54122;53.538;49.366;2023-07-29T09:14:10;12.90;;;2.90;;
67195;SDS011;54122;53.538;49.366;2023-07-29T09:16:36;7.88;;;2.95;;
67195;SDS011;54122;53.538;49.366;2023-07-29T09:19:04;9.85;;;3.13;;
67195;SDS011;54122;53.538;49.366;2023-07-29T09:21:31;5.22;;;2.92;;
67195;SDS011;54122;53.538;49.366;2023-07-29T09:23:57;5.43;;;2.65;;
67195;SDS011;54122;53.538;49.366;2023-07-29T09:26:30;5.97;;;3.13;;
67195;SDS011;54122;53.538;49.366;2023-07-29T09:28:57;9.48;;;2.80;;
67195;SDS011;54122;53.538;49.366;2023-07-29T09:31:25;5.57;;;2.60;;
67195;SDS011;54122;53.538;49.366;2023-07-29T09:33:59;11.88;;;3.05;;
67195;SDS011;54122;53.538;49.366;2023-07-29T09:36:32;4.72;;;2.60;;
67195;SDS011;54122;53.538;49.366;2023-07-29T09:39:00;7.22;;;3.10;;
67195;SDS011;54122;53.538;49.366;2023-07-29T09:41:27;7.30;;;3.30;;
67195;SDS011;54122;53.538;49.366;2023-07-29T09:43:57;7.50;;;3.10;;
67195;SDS011;54122;53.538;49.366;2023-07-29T09:46:25;7.47;;;2.83;;
67195;SDS011;54122;53.538;49.366;2023-07-29T09:48:57;8.10;;;3.17;;
67195;SDS011;54122;53.538;49.366;2023-07-29T09:51:23;4.50;;;2.47;;
67195;SDS011;54122;53.538;49.366;2023-07-29T09:53:50;6.15;;;2.97;;
67195;SDS011;54122;53.538;49.366;2023-07-29T09:56:25;6.28;;;3.03;;
67195;SDS011;54122;53.538;49.366;2023-07-29T09:58:52;6.10;;;2.88;;
67195;SDS011;54122;53.538;49.366;2023-07-29T10:01:18;10.30;;;3.55;;
67195;SDS011;54122;53.538;49.366;2023-07-29T10:03:45;8.48;;;2.53;;
67195;SDS011;54122;53.538;49.366;2023-07-29T10:06:11;9.27;;;3.22;;
67195;SDS011;54122;53.538;49.366;2023-07-29T10:08:39;6.57;;;3.53;;
67195;SDS011;54122;53.538;49.366;2023-07-29T10:11:08;8.60;;;2.75;;
67195;SDS011;54122;53.538;49.366;2023-07-29T10:13:35;6.22;;;3.20;;
67195;SDS011;54122;53.538;49.366;2023-07-29T10:16:02;9.70;;;2.88;;
67195;SDS011;54122;53.538;49.366;2023-07-29T10:18:33;7.43;;;3.20;;
67195;SDS011;54122;53.538;49.366;2023-07-29T10:21:00;9.60;;;3.10;;
67195;SDS011;54122;53.538;49.366;2023-07-29T10:23:30;4.97;;;3.33;;
67195;SDS011;54122;53.538;49.366;2023-07-29T10:26:04;9.65;;;3.30;;
67195;SDS011;54122;53.538;49.366;2023-07-29T10:28:32;4.63;;;2.50;;
67195;SDS011;54122;53.538;49.366;2023-07-29T10:31:00;5.45;;;2.85;;
67195;SDS011;54122;53.538;49.366;2023-07-29T10:33:27;6.20;;;2.90;;
67195;SDS011;54122;53.538;49.366;2023-07-29T10:35:55;6.40;;;2.53;;
67195;SDS011;54122;53.538;49.366;2023-07-29T10:38:22;4.50;;;2.75;;
67195;SDS011;54122;53.538;49.366;2023-07-29T10:40:51;5.05;;;2.88;;
67195;SDS011;54122;53.538;49.366;2023-07-29T10:43:26;7.57;;;3.10;;
67195;SDS011;54122;53.538;49.366;2023-07-29T10:45:54;5.60;;;2.50;;
67195;SDS011;54122;53.538;49.366;2023-07-29T10:53:52;6.38;;;2.45;;
67195;SDS011;54122;53.538;49.366;2023-07-29T10:56:26;6.28;;;2.78;;
67195;SDS011;54122;53.538;49.366;2023-07-29T11:01:42;9.07;;;2.67;;
67195;SDS011;54122;53.538;49.366;2023-07-29T11:15:30;4.90;;;2.50;;
67195;SDS011;54122;53.538;49.366;2023-07-29T11:17:57;7.10;;;2.67;;
67195;SDS011;54122;53.538;49.366;2023-07-29T11:20:25;5.28;;;2.58;;
67195;SDS011;54122;53.538;49.366;2023-07-29T11:22:57;11.38;;;2.80;;
67195;SDS011;54122;53.538;49.366;2023-07-29T11:25:27;17.33;;;2.92;;
67195;SDS011;54122;53.538;49.366;2023-07-29T11:27:59;6.93;;;2.53;;
67195;SDS011;54122;53.538;49.366;2023-07-29T11:30:25;7.70;;;2.83;;
67195;SDS011;54122;53.538;49.366;2023-07-29T11:32:53;8.75;;;2.63;;
67195;SDS011;54122;53.538;49.366;2023-07-29T11:35:21;11.57;;;2.67;;
67195;SDS011;54122;53.538;49.366;2023-07-29T11:37:48;8.80;;;2.97;;
67195;SDS011;54122;53.538;49.366;2023-07-29T11:40:19;8.05;;;2.60;;
67195;SDS011;54122;53.538;49.366;2023-07-29T11:45:19;12.57;;;2.63;;
67195;SDS011;54122;53.538;49.366;2023-07-29T11:47:46;8.60;;;2.92;;
67195;SDS011;54122;53.538;49.366;2023-07-29T11:50:13;9.55;;;2.80;;
67195;SDS011;54122;53.538;49.366;2023-07-29T11:52:41;7.07;;;2.85;;
67195;SDS011;54122;53.538;49.366;2023-07-29T11:55:09;5.63;;;3.00;;
67195;SDS011;54122;53.538;49.366;2023-07-29T11:57:36;9.02;;;3.80;;
67195;SDS011;54122;53.538;49.366;2023-07-29T12:00:04;9.05;;;4.25;;
67195;SDS011;54122;53.538;49.366;2023-07-29T12:02:33;11.07;;;4.72;;
67195;SDS011;54122;53.538;49.366;2023-07-29T12:05:05;10.60;;;3.08;;
67195;SDS011;54122;53.538;49.366;2023-07-29T12:07:32;5.60;;;2.75;;
67195;SDS011;54122;53.538;49.366;2023-07-29T12:10:02;12.98;;;2.90;;
67195;SDS011;54122;53.538;49.366;2023-07-29T12:12:37;29.00;;;4.35;;
67195;SDS011;54122;53.538;49.366;2023-07-29T12:15:11;19.15;;;2.97;;
67195;SDS011;54122;53.538;49.366;2023-07-29T12:17:39;20.65;;;2.83;;
67195;SDS011;54122;53.538;49.366;2023-07-29T12:20:09;4.78;;;1.63;;
67195;SDS011;54122;53.538;49.366;2023-07-29T12:22:36;4.80;;;1.75;;
67195;SDS011;54122;53.538;49.366;2023-07-29T12:25:02;6.63;;;1.30;;
67195;SDS011;54122;53.538;49.366;2023-07-29T12:27:30;12.35;;;2.33;;
67195;SDS011;54122;53.538;49.366;2023-07-29T12:29:57;15.35;;;3.00;;
67195;SDS011;54122;53.538;49.366;2023-07-29T12:32:26;9.30;;;3.47;;
67195;SDS011;54122;53.538;49.366;2023-07-29T12:34:53;8.85;;;2.53;;
67195;SDS011;54122;53.538;49.366;2023-07-29T12:37:19;7.40;;;2.72;;
67195;SDS011;54122;53.538;49.366;2023-07-29T12:39:49;16.10;;;2.30;;
67195;SDS011;54122;53.538;49.366;2023-07-29T12:42:16;8.00;;;2.88;;
67195;SDS011;54122;53.538;49.366;2023-07-29T12:44:42;15.77;;;2.95;;
67195;SDS011;54122;53.538;49.366;2023-07-29T12:47:08;10.43;;;3.00;;
67195;SDS011;54122;53.538;49.366;2023-07-29T12:49:37;2.47;;;1.50;;
67195;SDS011;54122;53.538;49.366;2023-07-29T12:52:05;5.75;;;1.98;;
67195;SDS011;54122;53.538;49.366;2023-07-29T12:54:32;5.85;;;1.73;;
67195;SDS011;54122;53.538;49.366;2023-07-29T12:56:58;10.10;;;2.05;;
67195;SDS011;54122;53.538;49.366;2023-07-29T12:59:25;8.63;;;2.30;;
67195;SDS011;54122;53.538;49.366;2023-07-29T13:01:51;8.43;;;2.83;;
67195;SDS011;54122;53.538;49.366;2023-07-29T13:04:17;8.07;;;1.83;;
67195;SDS011;54122;53.538;49.366;2023-07-29T13:06:44;4.78;;;2.13;;
67195;SDS011;54122;53.538;49.366;2023-07-29T13:09:10;7.32;;;2.15;;
67195;SDS011;54122;53.538;49.366;2023-07-29T13:11:36;8.45;;;2.03;;
67195;SDS011;54122;53.538;49.366;2023-07-29T13:14:02;5.68;;;1.88;;
67195;SDS011;54122;53.538;49.366;2023-07-29T13:16:29;7.65;;;2.20;;
67195;SDS011;54122;53.538;49.366;2023-07-29T13:18:55;7.28;;;1.80;;
67195;SDS011;54122;53.538;49.366;2023-07-29T13:21:22;2.95;;;1.83;;
67195;SDS011;54122;53.538;49.366;2023-07-29T13:23:48;8.10;;;2.50;;
67195;SDS011;54122;53.538;49.366;2023-07-29T13:26:15;7.72;;;3.00;;
67195;SDS011;54122;53.538;49.366;2023-07-29T13:28:41;6.07;;;2.08;;
67195;SDS011;54122;53.538;49.366;2023-07-29T13:31:10;2.65;;;1.60;;
67195;SDS011;54122;53.538;49.366;2023-07-29T13:33:36;8.95;;;1.85;;
67195;SDS011;54122;53.538;49.366;2023-07-29T13:36:03;10.20;;;2.35;;
67195;SDS011;54122;53.538;49.366;2023-07-29T13:38:30;4.93;;;1.70;;
67195;SDS011;54122;53.538;49.366;2023-07-29T13:40:57;6.40;;;1.95;;
67195;SDS011;54122;53.538;49.366;2023-07-29T13:43:23;3.78;;;1.63;;
67195;SDS011;54122;53.538;49.366;2023-07-29T13:45:50;4.90;;;1.83;;
67195;SDS011;54122;53.538;49.366;2023-07-29T13:48:17;10.52;;;1.95;;
67195;SDS011;54122;53.538;49.366;2023-07-29T13:50:43;4.45;;;1.83;;
67195;SDS011;54122;53.538;49.366;2023-07-29T13:53:09;5.80;;;1.90;;
67195;SDS011;54122;53.538;49.366;2023-07-29T13:55:36;5.20;;;1.88;;
67195;SDS011;54122;53.538;49.366;2023-07-29T13:58:03;8.60;;;3.53;;
67195;SDS011;54122;53.538;49.366;2023-07-29T14:00:29;6.22;;;3.03;;
67195;SDS011;54122;53.538;49.366;2023-07-29T14:02:56;9.80;;;3.33;;
67195;SDS011;54122;53.538;49.366;2023-07-29T14:05:22;7.82;;;2.53;;
67195;SDS011;54122;53.538;49.366;2023-07-29T14:07:49;7.03;;;2.20;;
67195;SDS011;54122;53.538;49.366;2023-07-29T14:10:15;7.10;;;2.25;;
67195;SDS011;54122;53.538;49.366;2023-07-29T14:12:42;5.35;;;2.33;;
67195;SDS011;54122;53.538;49.366;2023-07-29T14:15:09;9.30;;;1.95;;
67195;SDS011;54122;53.538;49.366;2023-07-29T14:17:35;12.45;;;1.80;;
67195;SDS011;54122;53.538;49.366;2023-07-29T14:20:03;6.53;;;2.28;;
67195;SDS011;54122;53.538;49.366;2023-07-29T14:22:30;6.75;;;2.65;;
67195;SDS011;54122;53.538;49.366;2023-07-29T14:24:58;4.38;;;2.17;;
67195;SDS011;54122;53.538;49.366;2023-07-29T14:27:25;10.63;;;2.80;;
67195;SDS011;54122;53.538;49.366;2023-07-29T14:29:53;9.35;;;2.58;;
67195;SDS011;54122;53.538;49.366;2023-07-29T14:32:19;3.28;;;2.17;;
67195;SDS011;54122;53.538;49.366;2023-07-29T14:34:47;5.47;;;2.05;;
67195;SDS011;54122;53.538;49.366;2023-07-29T14:37:14;10.93;;;3.25;;
67195;SDS011;54122;53.538;49.366;2023-07-29T14:39:41;5.78;;;2.53;;
67195;SDS011;54122;53.538;49.366;2023-07-29T14:42:07;8.00;;;2.83;;
67195;SDS011;54122;53.538;49.366;2023-07-29T14:44:33;9.93;;;2.78;;
67195;SDS011;54122;53.538;49.366;2023-07-29T14:46:59;9.20;;;2.72;;
67195;SDS011;54122;53.538;49.366;2023-07-29T14:49:26;5.75;;;2.25;;
67195;SDS011;54122;53.538;49.366;2023-07-29T14:51:52;14.80;;;2.42;;
67195;SDS011;54122;53.538;49.366;2023-07-29T14:54:18;4.82;;;2.60;;
67195;SDS011;54122;53.538;49.366;2023-07-29T14:56:44;8.30;;;2.70;;
67195;SDS011;54122;53.538;49.366;2023-07-29T14:59:12;8.88;;;2.63;;